Pasadena, TX

9:16 PM CST on November 20, 2014 (GMT -0600)
London | Change Station
CLOSE
Current Station
Personal Weather Station
Location: Pasadena, TX
Elevation: 39 ft
Nearby Weather Stations

Elev 39 ft 29.69 °N, 95.18 °W | Updated 1 minute ago

Mostly Cloudy
Mostly Cloudy
61.3 °F
Feels Like 61.3 °F
N
0.0
Wind Variable Wind from ENE

Today
High -- | Low -- °F
--% Chance of Precip.
Yesterday
High -- | Low -- °F
Precip. -- in
6:49 AM 5:23 PM
Waning Crescent, 2% visible
Pressure 30.13 in
Visibility 5.0 miles
Clouds Mostly Cloudy 2000 ft
Dew Point 59 °F
Humidity 92%
Rainfall 0.00 in
Snow Depth Not available.
UV 0 out of 12
Pollen 2.10 out of 12
Air Quality Not available.
Flu Activity Not available.
METAR KEFD 210250Z 00000KT 5SM VCSH BKN020 18/15 A3013

More Conditions Fewer Conditions

Pressure 30.13 in
Visibility 5.0 miles
Clouds Mostly Cloudy 2000 ft
Dew Point 59 °F
Humidity 92%
Rainfall 0.00 in
Snow Depth Not available.
UV 0 out of 12
Pollen 2.10 out of 12
Air Quality Not available.
Flu Activity Not available.
METAR KEFD 210250Z 00000KT 5SM VCSH BKN020 18/15 A3013

More Conditions Fewer Conditions

10-Day Weather Forecast

Almanac

Astronomy

Nov. 20, 2014 Rise Set
Actual Time
Civil Twilight
Nautical Twilight
Astronomical Twilight
Moon
Length of Visible Light
Length of Day
Tomorrow will be .
, % of the Moon is Illuminated

Today's Extremes

State Highs State Lows

Community

WunderPhotos

Upload Photos

1,772,610 photos uploaded!

WunderBlogs® & News

Nearby

Air Quality

  Air Quality AQ Index Pollutant
Not available.

Snow Depth

Station Depth Elevation

Earthquake Activity

City Distance Mag. Time & Date
Minimum magnitude displayed is 2.5.

Coastal Water Temperatures

Place Temperature

Nearby Weather Stations